sensor_id;sensor_type;location;lat;lon;timestamp;P1;durP1;ratioP1;P2;durP2;ratioP2
14748;SDS011;7466;53.574;9.976;2023-03-12T00:01:26;10.87;;;9.77;;
14748;SDS011;7466;53.574;9.976;2023-03-12T00:03:54;12.10;;;9.20;;
14748;SDS011;7466;53.574;9.976;2023-03-12T00:06:20;11.33;;;10.27;;
14748;SDS011;7466;53.574;9.976;2023-03-12T00:08:47;10.07;;;9.20;;
14748;SDS011;7466;53.574;9.976;2023-03-12T00:11:15;10.40;;;9.40;;
14748;SDS011;7466;53.574;9.976;2023-03-12T00:13:43;10.70;;;9.83;;
14748;SDS011;7466;53.574;9.976;2023-03-12T00:16:15;11.70;;;9.73;;
14748;SDS011;7466;53.574;9.976;2023-03-12T00:18:42;10.37;;;9.27;;
14748;SDS011;7466;53.574;9.976;2023-03-12T00:21:09;11.37;;;9.27;;
14748;SDS011;7466;53.574;9.976;2023-03-12T00:23:36;9.47;;;8.67;;
14748;SDS011;7466;53.574;9.976;2023-03-12T00:26:04;11.43;;;10.07;;
14748;SDS011;7466;53.574;9.976;2023-03-12T00:28:32;11.67;;;9.20;;
14748;SDS011;7466;53.574;9.976;2023-03-12T00:31:00;11.37;;;9.60;;
14748;SDS011;7466;53.574;9.976;2023-03-12T00:33:28;15.07;;;10.07;;
14748;SDS011;7466;53.574;9.976;2023-03-12T00:35:55;14.70;;;9.37;;
14748;SDS011;7466;53.574;9.976;2023-03-12T00:38:25;12.43;;;10.23;;
14748;SDS011;7466;53.574;9.976;2023-03-12T00:40:52;12.30;;;10.30;;
14748;SDS011;7466;53.574;9.976;2023-03-12T00:43:19;17.00;;;12.13;;
14748;SDS011;7466;53.574;9.976;2023-03-12T00:45:45;13.37;;;11.97;;
14748;SDS011;7466;53.574;9.976;2023-03-12T00:48:12;16.00;;;11.83;;
14748;SDS011;7466;53.574;9.976;2023-03-12T00:50:40;14.83;;;12.03;;
14748;SDS011;7466;53.574;9.976;2023-03-12T00:53:07;19.33;;;13.00;;
14748;SDS011;7466;53.574;9.976;2023-03-12T00:55:34;15.83;;;13.10;;
14748;SDS011;7466;53.574;9.976;2023-03-12T00:58:01;16.37;;;12.80;;
14748;SDS011;7466;53.574;9.976;2023-03-12T01:00:27;17.50;;;13.67;;
14748;SDS011;7466;53.574;9.976;2023-03-12T01:02:54;17.37;;;14.90;;
14748;SDS011;7466;53.574;9.976;2023-03-12T01:05:21;21.67;;;15.07;;
14748;SDS011;7466;53.574;9.976;2023-03-12T01:07:49;17.97;;;15.23;;
14748;SDS011;7466;53.574;9.976;2023-03-12T01:10:18;16.50;;;13.87;;
14748;SDS011;7466;53.574;9.976;2023-03-12T01:12:46;16.37;;;14.17;;
14748;SDS011;7466;53.574;9.976;2023-03-12T01:15:13;20.87;;;14.90;;
14748;SDS011;7466;53.574;9.976;2023-03-12T01:17:42;23.80;;;15.47;;
14748;SDS011;7466;53.574;9.976;2023-03-12T01:20:09;24.00;;;15.77;;
14748;SDS011;7466;53.574;9.976;2023-03-12T01:22:36;20.00;;;15.70;;
14748;SDS011;7466;53.574;9.976;2023-03-12T01:25:05;20.07;;;15.30;;
14748;SDS011;7466;53.574;9.976;2023-03-12T01:27:32;19.43;;;14.50;;
14748;SDS011;7466;53.574;9.976;2023-03-12T01:29:59;22.03;;;15.37;;
14748;SDS011;7466;53.574;9.976;2023-03-12T01:32:26;16.50;;;14.87;;
14748;SDS011;7466;53.574;9.976;2023-03-12T01:34:53;21.37;;;14.13;;
14748;SDS011;7466;53.574;9.976;2023-03-12T01:37:20;18.87;;;14.73;;
14748;SDS011;7466;53.574;9.976;2023-03-12T01:39:47;18.90;;;14.30;;
14748;SDS011;7466;53.574;9.976;2023-03-12T01:42:15;15.93;;;14.23;;
14748;SDS011;7466;53.574;9.976;2023-03-12T01:44:49;18.20;;;14.83;;
14748;SDS011;7466;53.574;9.976;2023-03-12T01:47:16;19.73;;;14.77;;
14748;SDS011;7466;53.574;9.976;2023-03-12T01:49:44;18.87;;;14.80;;
14748;SDS011;7466;53.574;9.976;2023-03-12T01:52:12;22.13;;;15.23;;
14748;SDS011;7466;53.574;9.976;2023-03-12T01:54:42;19.13;;;15.33;;
14748;SDS011;7466;53.574;9.976;2023-03-12T01:57:12;18.23;;;14.93;;
14748;SDS011;7466;53.574;9.976;2023-03-12T01:59:44;18.37;;;15.03;;
14748;SDS011;7466;53.574;9.976;2023-03-12T02:02:13;18.13;;;14.57;;
14748;SDS011;7466;53.574;9.976;2023-03-12T02:04:42;19.47;;;15.70;;
14748;SDS011;7466;53.574;9.976;2023-03-12T02:07:12;19.37;;;14.93;;
14748;SDS011;7466;53.574;9.976;2023-03-12T02:09:40;21.70;;;14.97;;
14748;SDS011;7466;53.574;9.976;2023-03-12T02:12:10;20.50;;;14.77;;
14748;SDS011;7466;53.574;9.976;2023-03-12T02:14:38;20.57;;;15.93;;
14748;SDS011;7466;53.574;9.976;2023-03-12T02:17:06;22.60;;;15.93;;
14748;SDS011;7466;53.574;9.976;2023-03-12T02:19:36;20.13;;;15.53;;
14748;SDS011;7466;53.574;9.976;2023-03-12T02:22:09;20.50;;;15.83;;
14748;SDS011;7466;53.574;9.976;2023-03-12T02:24:38;23.33;;;17.30;;
14748;SDS011;7466;53.574;9.976;2023-03-12T02:27:11;20.47;;;16.13;;
14748;SDS011;7466;53.574;9.976;2023-03-12T02:29:39;22.50;;;16.13;;
14748;SDS011;7466;53.574;9.976;2023-03-12T02:32:09;21.30;;;16.33;;
14748;SDS011;7466;53.574;9.976;2023-03-12T02:34:42;15.93;;;13.23;;
14748;SDS011;7466;53.574;9.976;2023-03-12T02:37:09;19.90;;;13.90;;
14748;SDS011;7466;53.574;9.976;2023-03-12T02:39:35;13.43;;;11.50;;
14748;SDS011;7466;53.574;9.976;2023-03-12T02:42:04;13.97;;;11.07;;
14748;SDS011;7466;53.574;9.976;2023-03-12T02:44:32;13.23;;;10.77;;
14748;SDS011;7466;53.574;9.976;2023-03-12T02:47:01;11.87;;;10.03;;
14748;SDS011;7466;53.574;9.976;2023-03-12T02:49:29;16.80;;;11.03;;
14748;SDS011;7466;53.574;9.976;2023-03-12T02:51:58;12.10;;;10.73;;
14748;SDS011;7466;53.574;9.976;2023-03-12T02:54:25;12.07;;;10.60;;
14748;SDS011;7466;53.574;9.976;2023-03-12T02:56:53;12.90;;;10.40;;
14748;SDS011;7466;53.574;9.976;2023-03-12T02:59:20;20.43;;;11.20;;
14748;SDS011;7466;53.574;9.976;2023-03-12T03:01:52;16.17;;;12.13;;
14748;SDS011;7466;53.574;9.976;2023-03-12T03:04:19;14.23;;;10.63;;
14748;SDS011;7466;53.574;9.976;2023-03-12T03:06:46;18.37;;;11.40;;
14748;SDS011;7466;53.574;9.976;2023-03-12T03:09:13;16.97;;;11.20;;
14748;SDS011;7466;53.574;9.976;2023-03-12T03:11:40;16.80;;;12.03;;
14748;SDS011;7466;53.574;9.976;2023-03-12T03:14:07;21.13;;;11.70;;
14748;SDS011;7466;53.574;9.976;2023-03-12T03:16:34;16.67;;;11.10;;
14748;SDS011;7466;53.574;9.976;2023-03-12T03:19:02;12.67;;;11.37;;
14748;SDS011;7466;53.574;9.976;2023-03-12T03:21:29;16.73;;;11.97;;
14748;SDS011;7466;53.574;9.976;2023-03-12T03:23:57;13.63;;;12.10;;
14748;SDS011;7466;53.574;9.976;2023-03-12T03:26:24;12.50;;;11.20;;
14748;SDS011;7466;53.574;9.976;2023-03-12T03:28:51;15.90;;;11.20;;
14748;SDS011;7466;53.574;9.976;2023-03-12T03:31:18;15.53;;;11.37;;
14748;SDS011;7466;53.574;9.976;2023-03-12T03:33:45;18.63;;;11.87;;
14748;SDS011;7466;53.574;9.976;2023-03-12T03:36:14;17.93;;;11.83;;
14748;SDS011;7466;53.574;9.976;2023-03-12T03:38:42;17.93;;;12.90;;
14748;SDS011;7466;53.574;9.976;2023-03-12T03:41:14;16.57;;;12.77;;
14748;SDS011;7466;53.574;9.976;2023-03-12T03:43:42;13.77;;;12.07;;
14748;SDS011;7466;53.574;9.976;2023-03-12T03:46:09;16.57;;;12.83;;
14748;SDS011;7466;53.574;9.976;2023-03-12T03:48:37;15.43;;;12.57;;
14748;SDS011;7466;53.574;9.976;2023-03-12T03:51:05;18.53;;;12.73;;
14748;SDS011;7466;53.574;9.976;2023-03-12T03:53:34;19.30;;;11.77;;
14748;SDS011;7466;53.574;9.976;2023-03-12T03:56:05;12.30;;;11.03;;
14748;SDS011;7466;53.574;9.976;2023-03-12T03:58:32;16.00;;;11.00;;
14748;SDS011;7466;53.574;9.976;2023-03-12T04:00:59;17.10;;;10.90;;
14748;SDS011;7466;53.574;9.976;2023-03-12T04:03:26;18.77;;;11.27;;
14748;SDS011;7466;53.574;9.976;2023-03-12T04:05:54;13.33;;;11.13;;
14748;SDS011;7466;53.574;9.976;2023-03-12T04:08:21;14.73;;;10.93;;
14748;SDS011;7466;53.574;9.976;2023-03-12T04:10:50;11.47;;;10.37;;
14748;SDS011;7466;53.574;9.976;2023-03-12T04:13:17;11.63;;;10.47;;
14748;SDS011;7466;53.574;9.976;2023-03-12T04:15:45;14.27;;;10.77;;
14748;SDS011;7466;53.574;9.976;2023-03-12T04:18:12;14.03;;;10.20;;
14748;SDS011;7466;53.574;9.976;2023-03-12T04:20:39;13.47;;;10.23;;
14748;SDS011;7466;53.574;9.976;2023-03-12T04:23:06;11.07;;;9.97;;
14748;SDS011;7466;53.574;9.976;2023-03-12T04:25:32;17.30;;;10.00;;
14748;SDS011;7466;53.574;9.976;2023-03-12T04:28:01;14.73;;;10.93;;
14748;SDS011;7466;53.574;9.976;2023-03-12T04:30:28;14.07;;;11.37;;
14748;SDS011;7466;53.574;9.976;2023-03-12T04:32:54;18.77;;;12.03;;
14748;SDS011;7466;53.574;9.976;2023-03-12T04:35:21;17.00;;;13.27;;
14748;SDS011;7466;53.574;9.976;2023-03-12T04:37:49;18.10;;;11.93;;
14748;SDS011;7466;53.574;9.976;2023-03-12T04:40:16;19.60;;;13.07;;
14748;SDS011;7466;53.574;9.976;2023-03-12T04:42:44;15.50;;;12.43;;
14748;SDS011;7466;53.574;9.976;2023-03-12T04:45:13;23.53;;;12.87;;
14748;SDS011;7466;53.574;9.976;2023-03-12T04:47:40;16.13;;;12.27;;
14748;SDS011;7466;53.574;9.976;2023-03-12T04:50:08;13.33;;;11.10;;
14748;SDS011;7466;53.574;9.976;2023-03-12T04:52:35;14.83;;;12.63;;
14748;SDS011;7466;53.574;9.976;2023-03-12T04:55:02;20.13;;;12.67;;
14748;SDS011;7466;53.574;9.976;2023-03-12T04:57:30;13.63;;;11.97;;
14748;SDS011;7466;53.574;9.976;2023-03-12T04:59:57;17.80;;;12.83;;
14748;SDS011;7466;53.574;9.976;2023-03-12T05:02:25;18.97;;;11.77;;
14748;SDS011;7466;53.574;9.976;2023-03-12T05:04:54;15.13;;;11.37;;
14748;SDS011;7466;53.574;9.976;2023-03-12T05:07:21;13.73;;;11.70;;
14748;SDS011;7466;53.574;9.976;2023-03-12T05:09:48;18.97;;;12.77;;
14748;SDS011;7466;53.574;9.976;2023-03-12T05:12:15;18.93;;;13.03;;
14748;SDS011;7466;53.574;9.976;2023-03-12T05:14:42;18.47;;;13.47;;
14748;SDS011;7466;53.574;9.976;2023-03-12T05:17:08;15.33;;;13.43;;
14748;SDS011;7466;53.574;9.976;2023-03-12T05:19:37;22.77;;;13.00;;
14748;SDS011;7466;53.574;9.976;2023-03-12T05:22:03;17.13;;;12.83;;
14748;SDS011;7466;53.574;9.976;2023-03-12T05:24:30;18.83;;;12.63;;
14748;SDS011;7466;53.574;9.976;2023-03-12T05:26:57;19.23;;;12.63;;
14748;SDS011;7466;53.574;9.976;2023-03-12T05:29:24;18.07;;;13.07;;
14748;SDS011;7466;53.574;9.976;2023-03-12T05:31:51;16.00;;;12.53;;
14748;SDS011;7466;53.574;9.976;2023-03-12T05:34:18;16.30;;;13.03;;
14748;SDS011;7466;53.574;9.976;2023-03-12T05:36:46;22.30;;;13.47;;
14748;SDS011;7466;53.574;9.976;2023-03-12T05:39:13;19.73;;;13.20;;
14748;SDS011;7466;53.574;9.976;2023-03-12T05:41:39;16.13;;;12.93;;
14748;SDS011;7466;53.574;9.976;2023-03-12T05:44:08;18.83;;;12.80;;
14748;SDS011;7466;53.574;9.976;2023-03-12T05:46:37;18.70;;;12.73;;
14748;SDS011;7466;53.574;9.976;2023-03-12T05:49:04;14.67;;;11.47;;
14748;SDS011;7466;53.574;9.976;2023-03-12T05:51:31;17.77;;;12.07;;
14748;SDS011;7466;53.574;9.976;2023-03-12T05:53:59;20.90;;;11.90;;
14748;SDS011;7466;53.574;9.976;2023-03-12T05:56:26;18.10;;;11.60;;
14748;SDS011;7466;53.574;9.976;2023-03-12T05:58:53;13.83;;;10.50;;
14748;SDS011;7466;53.574;9.976;2023-03-12T06:01:21;16.10;;;12.20;;
14748;SDS011;7466;53.574;9.976;2023-03-12T06:03:49;18.13;;;12.23;;
14748;SDS011;7466;53.574;9.976;2023-03-12T06:06:16;13.97;;;12.27;;
14748;SDS011;7466;53.574;9.976;2023-03-12T06:08:43;14.37;;;11.53;;
14748;SDS011;7466;53.574;9.976;2023-03-12T06:11:12;16.63;;;11.50;;
14748;SDS011;7466;53.574;9.976;2023-03-12T06:13:39;14.97;;;11.53;;
14748;SDS011;7466;53.574;9.976;2023-03-12T06:16:07;17.73;;;12.50;;
14748;SDS011;7466;53.574;9.976;2023-03-12T06:18:37;20.70;;;12.50;;
14748;SDS011;7466;53.574;9.976;2023-03-12T06:21:07;20.33;;;11.70;;
14748;SDS011;7466;53.574;9.976;2023-03-12T06:23:35;15.87;;;12.43;;
14748;SDS011;7466;53.574;9.976;2023-03-12T06:26:02;19.90;;;12.10;;
14748;SDS011;7466;53.574;9.976;2023-03-12T06:28:31;17.80;;;12.83;;
14748;SDS011;7466;53.574;9.976;2023-03-12T06:30:58;19.70;;;12.30;;
14748;SDS011;7466;53.574;9.976;2023-03-12T06:33:25;13.90;;;11.33;;
14748;SDS011;7466;53.574;9.976;2023-03-12T06:35:53;13.20;;;11.87;;
14748;SDS011;7466;53.574;9.976;2023-03-12T06:38:20;15.77;;;12.07;;
14748;SDS011;7466;53.574;9.976;2023-03-12T06:40:54;14.10;;;11.87;;
14748;SDS011;7466;53.574;9.976;2023-03-12T06:43:22;13.87;;;11.63;;
14748;SDS011;7466;53.574;9.976;2023-03-12T06:45:50;14.77;;;11.93;;
14748;SDS011;7466;53.574;9.976;2023-03-12T06:48:19;17.97;;;10.60;;
14748;SDS011;7466;53.574;9.976;2023-03-12T06:50:46;17.30;;;11.87;;
14748;SDS011;7466;53.574;9.976;2023-03-12T06:53:13;20.27;;;11.50;;
14748;SDS011;7466;53.574;9.976;2023-03-12T06:55:40;13.97;;;11.03;;
14748;SDS011;7466;53.574;9.976;2023-03-12T06:58:07;17.63;;;11.93;;
14748;SDS011;7466;53.574;9.976;2023-03-12T07:00:35;16.10;;;11.57;;
14748;SDS011;7466;53.574;9.976;2023-03-12T07:03:03;14.23;;;11.10;;
14748;SDS011;7466;53.574;9.976;2023-03-12T07:05:30;18.20;;;11.77;;
14748;SDS011;7466;53.574;9.976;2023-03-12T07:07:57;14.83;;;11.13;;
14748;SDS011;7466;53.574;9.976;2023-03-12T07:10:24;13.07;;;10.73;;
14748;SDS011;7466;53.574;9.976;2023-03-12T07:12:53;11.87;;;9.83;;
14748;SDS011;7466;53.574;9.976;2023-03-12T07:15:20;11.97;;;9.87;;
14748;SDS011;7466;53.574;9.976;2023-03-12T07:17:48;16.23;;;10.53;;
14748;SDS011;7466;53.574;9.976;2023-03-12T07:20:16;10.60;;;8.43;;
14748;SDS011;7466;53.574;9.976;2023-03-12T07:22:43;9.47;;;8.57;;
14748;SDS011;7466;53.574;9.976;2023-03-12T07:25:10;11.83;;;8.63;;
14748;SDS011;7466;53.574;9.976;2023-03-12T07:27:37;9.67;;;8.27;;
14748;SDS011;7466;53.574;9.976;2023-03-12T07:30:04;8.57;;;7.70;;
14748;SDS011;7466;53.574;9.976;2023-03-12T07:32:32;8.60;;;7.70;;
14748;SDS011;7466;53.574;9.976;2023-03-12T07:35:00;10.00;;;7.83;;
14748;SDS011;7466;53.574;9.976;2023-03-12T07:37:29;13.93;;;7.60;;
14748;SDS011;7466;53.574;9.976;2023-03-12T07:39:56;8.20;;;7.23;;
14748;SDS011;7466;53.574;9.976;2023-03-12T07:42:23;8.07;;;6.73;;
14748;SDS011;7466;53.574;9.976;2023-03-12T07:44:51;9.83;;;6.83;;
14748;SDS011;7466;53.574;9.976;2023-03-12T07:47:17;10.57;;;6.80;;
14748;SDS011;7466;53.574;9.976;2023-03-12T07:49:44;8.07;;;6.60;;
14748;SDS011;7466;53.574;9.976;2023-03-12T07:52:11;7.30;;;6.10;;
14748;SDS011;7466;53.574;9.976;2023-03-12T07:54:39;7.17;;;6.00;;
14748;SDS011;7466;53.574;9.976;2023-03-12T07:57:06;8.83;;;6.77;;
14748;SDS011;7466;53.574;9.976;2023-03-12T07:59:33;6.20;;;5.37;;
14748;SDS011;7466;53.574;9.976;2023-03-12T08:02:00;8.23;;;6.37;;
14748;SDS011;7466;53.574;9.976;2023-03-12T08:04:27;6.70;;;6.10;;
14748;SDS011;7466;53.574;9.976;2023-03-12T08:06:54;10.73;;;5.50;;
14748;SDS011;7466;53.574;9.976;2023-03-12T08:09:20;6.17;;;5.57;;
14748;SDS011;7466;53.574;9.976;2023-03-12T08:11:48;5.83;;;5.23;;
14748;SDS011;7466;53.574;9.976;2023-03-12T08:14:15;8.50;;;4.63;;
14748;SDS011;7466;53.574;9.976;2023-03-12T08:16:42;6.50;;;4.93;;
14748;SDS011;7466;53.574;9.976;2023-03-12T08:19:09;7.87;;;4.53;;
14748;SDS011;7466;53.574;9.976;2023-03-12T08:21:36;5.87;;;4.77;;
14748;SDS011;7466;53.574;9.976;2023-03-12T08:24:03;7.07;;;4.87;;
14748;SDS011;7466;53.574;9.976;2023-03-12T08:26:29;8.93;;;4.77;;
14748;SDS011;7466;53.574;9.976;2023-03-12T08:28:58;7.50;;;4.80;;
14748;SDS011;7466;53.574;9.976;2023-03-12T08:31:25;5.43;;;4.43;;
14748;SDS011;7466;53.574;9.976;2023-03-12T08:33:52;5.60;;;4.50;;
14748;SDS011;7466;53.574;9.976;2023-03-12T08:36:20;5.63;;;3.80;;
14748;SDS011;7466;53.574;9.976;2023-03-12T08:38:46;4.93;;;3.50;;
14748;SDS011;7466;53.574;9.976;2023-03-12T08:41:13;4.03;;;3.67;;
14748;SDS011;7466;53.574;9.976;2023-03-12T08:43:40;4.40;;;3.70;;
14748;SDS011;7466;53.574;9.976;2023-03-12T08:46:08;4.40;;;3.93;;
14748;SDS011;7466;53.574;9.976;2023-03-12T08:48:35;4.47;;;4.07;;
14748;SDS011;7466;53.574;9.976;2023-03-12T08:51:02;6.70;;;3.90;;
14748;SDS011;7466;53.574;9.976;2023-03-12T08:53:32;4.70;;;4.17;;
14748;SDS011;7466;53.574;9.976;2023-03-12T08:55:59;5.67;;;3.70;;
14748;SDS011;7466;53.574;9.976;2023-03-12T08:58:27;6.07;;;3.73;;
14748;SDS011;7466;53.574;9.976;2023-03-12T09:00:55;5.33;;;3.73;;
14748;SDS011;7466;53.574;9.976;2023-03-12T09:03:23;4.17;;;3.77;;
14748;SDS011;7466;53.574;9.976;2023-03-12T09:06:00;5.63;;;3.87;;
14748;SDS011;7466;53.574;9.976;2023-03-12T09:08:28;5.60;;;4.20;;
14748;SDS011;7466;53.574;9.976;2023-03-12T09:10:58;4.87;;;3.80;;
14748;SDS011;7466;53.574;9.976;2023-03-12T09:13:25;4.73;;;4.07;;
14748;SDS011;7466;53.574;9.976;2023-03-12T09:15:57;7.50;;;5.13;;
14748;SDS011;7466;53.574;9.976;2023-03-12T09:18:26;7.33;;;4.80;;
14748;SDS011;7466;53.574;9.976;2023-03-12T09:20:54;6.53;;;4.10;;
14748;SDS011;7466;53.574;9.976;2023-03-12T09:23:21;7.20;;;4.60;;
14748;SDS011;7466;53.574;9.976;2023-03-12T09:25:48;5.13;;;4.37;;
14748;SDS011;7466;53.574;9.976;2023-03-12T09:28:15;6.90;;;4.60;;
14748;SDS011;7466;53.574;9.976;2023-03-12T09:30:42;6.57;;;4.70;;
14748;SDS011;7466;53.574;9.976;2023-03-12T09:33:09;5.47;;;4.50;;
14748;SDS011;7466;53.574;9.976;2023-03-12T09:35:37;6.60;;;4.23;;
14748;SDS011;7466;53.574;9.976;2023-03-12T09:38:04;12.13;;;5.63;;
14748;SDS011;7466;53.574;9.976;2023-03-12T09:40:32;6.63;;;4.67;;
14748;SDS011;7466;53.574;9.976;2023-03-12T09:43:05;6.67;;;4.60;;
14748;SDS011;7466;53.574;9.976;2023-03-12T09:45:37;6.13;;;4.70;;
14748;SDS011;7466;53.574;9.976;2023-03-12T09:48:11;5.67;;;4.50;;
14748;SDS011;7466;53.574;9.976;2023-03-12T09:50:43;7.73;;;4.47;;
14748;SDS011;7466;53.574;9.976;2023-03-12T09:53:13;9.20;;;4.30;;
14748;SDS011;7466;53.574;9.976;2023-03-12T09:55:51;5.60;;;3.97;;
14748;SDS011;7466;53.574;9.976;2023-03-12T09:58:21;5.17;;;4.20;;
14748;SDS011;7466;53.574;9.976;2023-03-12T10:00:54;4.83;;;4.00;;
14748;SDS011;7466;53.574;9.976;2023-03-12T10:03:32;7.07;;;3.80;;
14748;SDS011;7466;53.574;9.976;2023-03-12T10:06:19;8.17;;;4.23;;
14748;SDS011;7466;53.574;9.976;2023-03-12T10:08:52;7.00;;;4.13;;
14748;SDS011;7466;53.574;9.976;2023-03-12T10:11:35;6.60;;;4.53;;
14748;SDS011;7466;53.574;9.976;2023-03-12T10:14:13;10.87;;;4.07;;
14748;SDS011;7466;53.574;9.976;2023-03-12T10:16:48;7.30;;;4.20;;
14748;SDS011;7466;53.574;9.976;2023-03-12T10:19:29;6.27;;;4.60;;
14748;SDS011;7466;53.574;9.976;2023-03-12T10:22:14;6.53;;;4.37;;
14748;SDS011;7466;53.574;9.976;2023-03-12T10:24:55;7.87;;;4.33;;
14748;SDS011;7466;53.574;9.976;2023-03-12T10:27:31;5.53;;;4.17;;
14748;SDS011;7466;53.574;9.976;2023-03-12T10:30:01;6.83;;;4.17;;
14748;SDS011;7466;53.574;9.976;2023-03-12T10:32:31;6.97;;;4.00;;
14748;SDS011;7466;53.574;9.976;2023-03-12T10:35:12;6.70;;;3.93;;
14748;SDS011;7466;53.574;9.976;2023-03-12T10:37:43;5.03;;;3.83;;
14748;SDS011;7466;53.574;9.976;2023-03-12T10:40:13;8.03;;;4.33;;
14748;SDS011;7466;53.574;9.976;2023-03-12T10:42:41;6.90;;;3.93;;
14748;SDS011;7466;53.574;9.976;2023-03-12T10:45:13;5.93;;;4.10;;
14748;SDS011;7466;53.574;9.976;2023-03-12T10:47:47;5.80;;;4.00;;
14748;SDS011;7466;53.574;9.976;2023-03-12T10:50:17;12.10;;;6.30;;
14748;SDS011;7466;53.574;9.976;2023-03-12T10:52:48;10.60;;;6.57;;
14748;SDS011;7466;53.574;9.976;2023-03-12T10:55:20;7.60;;;4.97;;
14748;SDS011;7466;53.574;9.976;2023-03-12T10:57:50;9.67;;;4.37;;
14748;SDS011;7466;53.574;9.976;2023-03-12T11:00:18;9.47;;;3.93;;
14748;SDS011;7466;53.574;9.976;2023-03-12T11:02:54;8.03;;;4.17;;
14748;SDS011;7466;53.574;9.976;2023-03-12T11:05:23;4.50;;;3.73;;
14748;SDS011;7466;53.574;9.976;2023-03-12T11:07:53;7.90;;;3.87;;
14748;SDS011;7466;53.574;9.976;2023-03-12T11:10:22;6.17;;;3.70;;
14748;SDS011;7466;53.574;9.976;2023-03-12T11:12:54;6.00;;;3.80;;
14748;SDS011;7466;53.574;9.976;2023-03-12T11:15:27;5.53;;;3.87;;
14748;SDS011;7466;53.574;9.976;2023-03-12T11:18:18;7.37;;;3.60;;
14748;SDS011;7466;53.574;9.976;2023-03-12T11:20:50;6.97;;;3.47;;
14748;SDS011;7466;53.574;9.976;2023-03-12T11:23:22;7.20;;;3.77;;
14748;SDS011;7466;53.574;9.976;2023-03-12T11:25:56;7.83;;;3.60;;
14748;SDS011;7466;53.574;9.976;2023-03-12T11:28:28;9.97;;;3.60;;
14748;SDS011;7466;53.574;9.976;2023-03-12T11:31:01;6.10;;;3.20;;
14748;SDS011;7466;53.574;9.976;2023-03-12T11:33:31;3.70;;;3.33;;
14748;SDS011;7466;53.574;9.976;2023-03-12T11:36:03;6.87;;;3.63;;
14748;SDS011;7466;53.574;9.976;2023-03-12T11:38:45;6.17;;;3.13;;
14748;SDS011;7466;53.574;9.976;2023-03-12T11:41:23;3.47;;;3.10;;
14748;SDS011;7466;53.574;9.976;2023-03-12T11:44:04;4.13;;;3.00;;
14748;SDS011;7466;53.574;9.976;2023-03-12T11:46:43;3.10;;;2.83;;
14748;SDS011;7466;53.574;9.976;2023-03-12T11:49:23;5.60;;;3.20;;
14748;SDS011;7466;53.574;9.976;2023-03-12T11:52:01;11.43;;;3.57;;
14748;SDS011;7466;53.574;9.976;2023-03-12T11:54:36;5.63;;;3.60;;
14748;SDS011;7466;53.574;9.976;2023-03-12T11:57:23;7.73;;;3.40;;
14748;SDS011;7466;53.574;9.976;2023-03-12T12:00:01;4.47;;;3.13;;
14748;SDS011;7466;53.574;9.976;2023-03-12T12:02:44;4.83;;;3.00;;
14748;SDS011;7466;53.574;9.976;2023-03-12T12:05:47;5.90;;;3.03;;
14748;SDS011;7466;53.574;9.976;2023-03-12T12:08:46;5.03;;;2.97;;
14748;SDS011;7466;53.574;9.976;2023-03-12T12:11:38;4.63;;;2.73;;
14748;SDS011;7466;53.574;9.976;2023-03-12T12:14:18;4.13;;;3.10;;
14748;SDS011;7466;53.574;9.976;2023-03-12T12:17:00;3.87;;;2.77;;
14748;SDS011;7466;53.574;9.976;2023-03-12T12:19:37;5.50;;;2.90;;
14748;SDS011;7466;53.574;9.976;2023-03-12T12:22:21;7.07;;;3.00;;
14748;SDS011;7466;53.574;9.976;2023-03-12T12:25:11;5.70;;;2.90;;
14748;SDS011;7466;53.574;9.976;2023-03-12T12:27:50;6.40;;;2.80;;
14748;SDS011;7466;53.574;9.976;2023-03-12T12:30:28;4.03;;;2.73;;
14748;SDS011;7466;53.574;9.976;2023-03-12T12:33:10;4.37;;;2.47;;
14748;SDS011;7466;53.574;9.976;2023-03-12T12:35:48;6.97;;;2.80;;
14748;SDS011;7466;53.574;9.976;2023-03-12T12:38:16;5.10;;;2.90;;
14748;SDS011;7466;53.574;9.976;2023-03-12T12:40:54;2.57;;;2.37;;
14748;SDS011;7466;53.574;9.976;2023-03-12T12:43:29;5.63;;;2.30;;
14748;SDS011;7466;53.574;9.976;2023-03-12T12:46:00;2.83;;;2.50;;
14748;SDS011;7466;53.574;9.976;2023-03-12T12:48:31;3.43;;;2.40;;
14748;SDS011;7466;53.574;9.976;2023-03-12T12:51:02;4.80;;;2.60;;
14748;SDS011;7466;53.574;9.976;2023-03-12T12:53:32;2.53;;;2.17;;
14748;SDS011;7466;53.574;9.976;2023-03-12T12:56:08;3.07;;;2.10;;
14748;SDS011;7466;53.574;9.976;2023-03-12T12:58:58;4.70;;;2.23;;
14748;SDS011;7466;53.574;9.976;2023-03-12T13:01:45;3.23;;;2.53;;
14748;SDS011;7466;53.574;9.976;2023-03-12T13:04:15;3.20;;;2.27;;
14748;SDS011;7466;53.574;9.976;2023-03-12T13:06:55;6.53;;;2.27;;
14748;SDS011;7466;53.574;9.976;2023-03-12T13:09:36;4.67;;;2.10;;
14748;SDS011;7466;53.574;9.976;2023-03-12T13:12:17;2.30;;;2.00;;
14748;SDS011;7466;53.574;9.976;2023-03-12T13:14:48;2.70;;;2.07;;
14748;SDS011;7466;53.574;9.976;2023-03-12T13:17:19;4.53;;;2.20;;
14748;SDS011;7466;53.574;9.976;2023-03-12T13:19:50;4.50;;;2.40;;
14748;SDS011;7466;53.574;9.976;2023-03-12T13:22:38;2.20;;;2.00;;
14748;SDS011;7466;53.574;9.976;2023-03-12T13:25:25;2.73;;;2.47;;
14748;SDS011;7466;53.574;9.976;2023-03-12T13:31:01;2.33;;;2.13;;
14748;SDS011;7466;53.574;9.976;2023-03-12T13:33:50;3.30;;;1.90;;
14748;SDS011;7466;53.574;9.976;2023-03-12T13:36:19;3.63;;;2.40;;
14748;SDS011;7466;53.574;9.976;2023-03-12T13:38:53;3.70;;;2.20;;
14748;SDS011;7466;53.574;9.976;2023-03-12T13:41:30;4.53;;;2.50;;
14748;SDS011;7466;53.574;9.976;2023-03-12T13:43:59;3.13;;;2.43;;
14748;SDS011;7466;53.574;9.976;2023-03-12T13:46:48;6.90;;;2.67;;
14748;SDS011;7466;53.574;9.976;2023-03-12T13:49:22;4.90;;;2.37;;
14748;SDS011;7466;53.574;9.976;2023-03-12T13:51:54;5.07;;;2.27;;
14748;SDS011;7466;53.574;9.976;2023-03-12T13:54:25;3.90;;;2.57;;
14748;SDS011;7466;53.574;9.976;2023-03-12T13:56:58;6.30;;;3.03;;
14748;SDS011;7466;53.574;9.976;2023-03-12T13:59:28;4.37;;;2.60;;
14748;SDS011;7466;53.574;9.976;2023-03-12T14:01:58;4.83;;;2.80;;
14748;SDS011;7466;53.574;9.976;2023-03-12T14:04:30;4.23;;;2.40;;
14748;SDS011;7466;53.574;9.976;2023-03-12T14:07:05;2.57;;;2.33;;
14748;SDS011;7466;53.574;9.976;2023-03-12T14:09:53;3.47;;;2.97;;
14748;SDS011;7466;53.574;9.976;2023-03-12T14:12:30;4.30;;;2.60;;
14748;SDS011;7466;53.574;9.976;2023-03-12T14:15:07;5.93;;;2.63;;
14748;SDS011;7466;53.574;9.976;2023-03-12T14:17:43;4.57;;;2.90;;
14748;SDS011;7466;53.574;9.976;2023-03-12T14:20:12;5.37;;;2.77;;
14748;SDS011;7466;53.574;9.976;2023-03-12T14:22:43;3.87;;;2.37;;
14748;SDS011;7466;53.574;9.976;2023-03-12T14:25:18;6.43;;;2.87;;
14748;SDS011;7466;53.574;9.976;2023-03-12T14:27:52;6.50;;;2.63;;
14748;SDS011;7466;53.574;9.976;2023-03-12T14:30:20;5.03;;;3.07;;
14748;SDS011;7466;53.574;9.976;2023-03-12T14:32:51;5.73;;;2.70;;
14748;SDS011;7466;53.574;9.976;2023-03-12T14:35:20;8.87;;;2.97;;
14748;SDS011;7466;53.574;9.976;2023-03-12T14:37:51;8.17;;;3.20;;
14748;SDS011;7466;53.574;9.976;2023-03-12T14:40:27;3.73;;;3.23;;
14748;SDS011;7466;53.574;9.976;2023-03-12T14:43:18;4.10;;;3.43;;
14748;SDS011;7466;53.574;9.976;2023-03-12T14:45:48;6.57;;;3.07;;
14748;SDS011;7466;53.574;9.976;2023-03-12T14:48:28;6.23;;;3.40;;
14748;SDS011;7466;53.574;9.976;2023-03-12T14:50:56;4.00;;;3.20;;
14748;SDS011;7466;53.574;9.976;2023-03-12T14:53:26;5.10;;;3.53;;
14748;SDS011;7466;53.574;9.976;2023-03-12T14:56:01;7.33;;;4.03;;
14748;SDS011;7466;53.574;9.976;2023-03-12T14:58:31;5.70;;;4.20;;
14748;SDS011;7466;53.574;9.976;2023-03-12T15:00:59;7.43;;;4.07;;
14748;SDS011;7466;53.574;9.976;2023-03-12T15:03:29;4.90;;;3.90;;
14748;SDS011;7466;53.574;9.976;2023-03-12T15:06:01;5.63;;;3.93;;
14748;SDS011;7466;53.574;9.976;2023-03-12T15:08:29;6.10;;;3.73;;
14748;SDS011;7466;53.574;9.976;2023-03-12T15:10:59;5.60;;;3.90;;